Time;durP1;ratioP1;P1;durP2;ratioP2;P2;SDS_P1;SDS_P2;PMS_P1;PMS_P2;Temp;Humidity;BMP_temperature;BMP_pressure;BME280_temperature;BME280_humidity;BME280_pressure;Samples;Min_cycle;Max_cycle;Signal;HPM_P1;HPM_P2
2022/07/11 00:01:39;;;;;;;2.95;2.25;;;18.70;99.90;;;;;;5055293;28;20064;-66
2022/07/11 00:04:05;;;;;;;3.08;2.13;;;18.80;99.90;;;;;;5060057;28;20064;-66
2022/07/11 00:06:30;;;;;;;3.13;2.08;;;18.80;99.80;;;;;;5059461;28;20068;-66
2022/07/11 00:08:56;;;;;;;3.33;2.40;;;18.80;99.80;;;;;;5058019;28;20024;-66
2022/07/11 00:11:21;;;;;;;3.08;2.55;;;18.80;99.90;;;;;;5053411;28;20036;-66
2022/07/11 00:13:47;;;;;;;4.78;2.10;;;18.90;99.80;;;;;;5054527;28;20056;-66
2022/07/11 00:16:13;;;;;;;5.22;2.05;;;18.90;99.70;;;;;;5054360;28;20029;-66
2022/07/11 00:18:39;;;;;;;6.15;2.42;;;18.90;99.70;;;;;;5053847;28;20096;-67
2022/07/11 00:21:04;;;;;;;3.95;2.42;;;18.90;99.70;;;;;;5054157;28;20033;-66
2022/07/11 00:23:30;;;;;;;3.28;2.22;;;18.90;99.90;;;;;;5053796;28;20029;-67
2022/07/11 00:25:55;;;;;;;3.10;2.17;;;18.80;99.90;;;;;;5053805;28;20076;-67
2022/07/11 00:28:21;;;;;;;3.47;2.33;;;18.80;99.90;;;;;;5054056;28;20083;-67
2022/07/11 00:30:47;;;;;;;3.28;2.47;;;18.80;99.90;;;;;;5053743;28;20068;-67
2022/07/11 00:33:12;;;;;;;2.72;2.50;;;18.80;99.90;;;;;;5053397;28;20028;-67
2022/07/11 00:35:38;;;;;;;3.65;2.30;;;18.80;99.90;;;;;;5053812;28;20078;-67
2022/07/11 00:38:03;;;;;;;5.63;2.45;;;18.80;99.90;;;;;;5053414;28;20028;-67
2022/07/11 00:40:29;;;;;;;2.67;2.45;;;18.80;99.90;;;;;;5053302;28;20032;-66
2022/07/11 00:42:54;;;;;;;2.40;2.15;;;18.80;99.90;;;;;;5053650;28;20029;-67
2022/07/11 00:45:20;;;;;;;3.55;2.80;;;18.80;99.90;;;;;;5053479;28;20029;-67
2022/07/11 00:47:46;;;;;;;2.78;2.47;;;18.80;99.90;;;;;;5053496;28;20116;-67
2022/07/11 00:50:13;;;;;;;4.00;2.50;;;18.80;99.90;;;;;;5053665;28;20103;-67
2022/07/11 00:52:40;;;;;;;3.03;2.38;;;18.90;99.90;;;;;;5053808;28;20039;-67
2022/07/11 00:55:07;;;;;;;2.83;2.40;;;18.90;99.90;;;;;;5053209;28;20178;-67
2022/07/11 00:57:33;;;;;;;4.05;2.28;;;18.90;99.90;;;;;;5053385;28;20100;-66
2022/07/11 00:59:59;;;;;;;2.45;2.22;;;18.80;99.90;;;;;;5053465;28;20013;-67
2022/07/11 01:02:25;;;;;;;2.80;2.28;;;18.80;99.90;;;;;;5053340;28;20032;-68
2022/07/11 01:04:50;;;;;;;2.65;2.45;;;18.90;99.90;;;;;;5053741;28;20033;-67
2022/07/11 01:07:16;;;;;;;3.92;3.08;;;18.90;99.90;;;;;;5051807;28;20033;-67
2022/07/11 01:09:42;;;;;;;3.88;2.40;;;19.00;99.90;;;;;;5053400;28;20028;-66
2022/07/11 01:12:08;;;;;;;4.15;2.17;;;19.10;99.90;;;;;;5056116;28;20055;-67
2022/07/11 01:14:34;;;;;;;2.75;2.10;;;19.40;99.90;;;;;;5063664;28;20029;-68
2022/07/11 01:17:00;;;;;;;2.95;2.20;;;19.40;99.70;;;;;;5065355;28;20021;-67
2022/07/11 01:19:25;;;;;;;2.42;2.00;;;19.40;99.30;;;;;;5065926;28;20051;-67
2022/07/11 01:21:55;;;;;;;2.33;1.85;;;19.40;99.40;;;;;;5055468;28;20032;-66
2022/07/11 01:24:21;;;;;;;2.20;2.00;;;19.30;99.60;;;;;;5053559;28;20070;-67
2022/07/11 01:26:47;;;;;;;4.03;1.90;;;19.40;99.50;;;;;;5053721;28;20036;-67
2022/07/11 01:29:14;;;;;;;2.45;1.90;;;19.40;99.50;;;;;;5053283;28;20116;-67
2022/07/11 01:31:41;;;;;;;2.88;2.13;;;19.40;99.50;;;;;;5052918;28;20100;-67
2022/07/11 01:34:06;;;;;;;5.30;2.00;;;19.40;99.30;;;;;;5052862;28;20429;-67
2022/07/11 01:36:32;;;;;;;4.85;2.50;;;19.50;99.10;;;;;;5052923;28;20075;-67
2022/07/11 01:38:57;;;;;;;4.07;2.10;;;19.60;99.20;;;;;;5053045;28;20061;-67
2022/07/11 01:41:24;;;;;;;2.85;1.92;;;19.60;99.10;;;;;;5052903;28;20501;-67
2022/07/11 01:43:49;;;;;;;;;;;19.40;99.30;;;;;;5053279;28;20029;-67
2022/07/11 01:46:16;;;;;;;3.55;2.28;;;19.30;99.50;;;;;;5053937;28;19928;-67
2022/07/11 01:48:42;;;;;;;2.65;2.10;;;19.20;99.80;;;;;;5054788;28;20017;-67
2022/07/11 01:51:07;;;;;;;2.42;1.95;;;19.30;99.90;;;;;;5051478;28;20074;-67
2022/07/11 01:53:33;;;;;;;4.70;2.00;;;19.50;99.50;;;;;;5056092;28;20502;-67
2022/07/11 01:55:58;;;;;;;2.00;1.77;;;19.40;99.40;;;;;;5056959;28;20044;-67
2022/07/11 01:58:24;;;;;;;2.20;1.98;;;19.20;99.80;;;;;;5056391;28;20166;-67
2022/07/11 02:00:50;;;;;;;3.40;2.25;;;19.00;99.90;;;;;;5056696;28;20036;-67
2022/07/11 02:03:16;;;;;;;2.85;1.90;;;18.90;99.90;;;;;;5056227;28;20108;-67
2022/07/11 02:05:42;;;;;;;;;;;18.80;99.90;;;;;;5056735;28;20043;-67
2022/07/11 02:08:14;;;;;;;3.72;2.63;;;18.70;99.90;;;;;;5056314;28;19935;-67
2022/07/11 02:10:48;;;;;;;2.75;2.10;;;18.70;99.90;;;;;;5056176;28;20029;-69
2022/07/11 02:13:16;;;;;;;2.58;1.90;;;18.70;99.90;;;;;;5056248;28;20030;-67
2022/07/11 02:15:43;;;;;;;2.83;2.25;;;19.00;99.90;;;;;;5056148;28;20096;-67
2022/07/11 02:18:10;;;;;;;3.25;2.10;;;19.10;99.90;;;;;;5055969;28;20446;-66
2022/07/11 02:20:37;;;;;;;4.20;1.65;;;19.30;99.90;;;;;;5056066;28;20052;-67
2022/07/11 02:23:03;;;;;;;2.33;1.75;;;19.30;99.90;;;;;;5056594;28;20040;-67
2022/07/11 02:25:30;;;;;;;2.47;2.00;;;19.40;99.90;;;;;;5056179;28;20029;-67
2022/07/11 02:27:56;;;;;;;4.88;2.10;;;19.50;99.80;;;;;;5056001;28;20103;-67
2022/07/11 02:30:22;;;;;;;3.25;1.90;;;19.50;99.90;;;;;;5055039;28;20028;-67
2022/07/11 02:32:49;;;;;;;2.65;1.90;;;19.60;99.80;;;;;;5056120;28;20036;-67
2022/07/11 02:35:15;;;;;;;3.47;2.20;;;19.50;99.80;;;;;;5054374;28;20474;-67
2022/07/11 02:37:41;;;;;;;4.00;2.28;;;19.30;99.90;;;;;;5054227;28;20167;-67
2022/07/11 02:40:07;;;;;;;3.10;2.28;;;19.30;99.90;;;;;;5055708;28;20445;-67
2022/07/11 02:42:33;;;;;;;2.58;2.10;;;19.40;99.90;;;;;;5055588;28;20040;-67
2022/07/11 02:44:58;;;;;;;2.97;1.98;;;19.40;99.90;;;;;;5055615;28;20029;-67
2022/07/11 02:47:24;;;;;;;2.58;1.98;;;19.50;99.90;;;;;;5055626;28;20020;-66
2022/07/11 02:49:49;;;;;;;2.70;2.05;;;19.50;99.90;;;;;;5055655;28;20075;-66
2022/07/11 02:52:15;;;;;;;3.55;1.88;;;19.30;99.90;;;;;;5055424;28;20031;-66
2022/07/11 02:54:41;;;;;;;2.90;1.73;;;19.30;99.90;;;;;;5055336;28;20029;-67
2022/07/11 02:57:06;;;;;;;2.10;1.70;;;19.30;99.90;;;;;;5055351;28;20017;-67
2022/07/11 02:59:32;;;;;;;3.63;2.05;;;19.20;99.90;;;;;;5054150;28;20385;-66
2022/07/11 03:01:57;;;;;;;2.63;2.13;;;19.10;99.90;;;;;;5055349;28;20040;-66
2022/07/11 03:04:23;;;;;;;4.25;2.60;;;19.00;99.90;;;;;;5055660;28;20036;-67
2022/07/11 03:06:49;;;;;;;2.97;2.38;;;18.90;99.90;;;;;;5055166;28;20029;-67
2022/07/11 03:09:14;;;;;;;2.85;2.10;;;18.80;99.90;;;;;;5055163;28;20154;-67
2022/07/11 03:11:40;;;;;;;3.15;2.17;;;18.60;99.90;;;;;;5053950;28;20025;-67
2022/07/11 03:14:05;;;;;;;5.65;2.10;;;18.60;99.90;;;;;;5055140;28;20033;-67
2022/07/11 03:16:31;;;;;;;2.40;2.20;;;18.70;99.90;;;;;;5055494;28;20025;-67
2022/07/11 03:18:57;;;;;;;3.38;1.98;;;18.60;99.90;;;;;;5055521;28;20062;-67
2022/07/11 03:21:24;;;;;;;5.65;1.98;;;18.70;99.90;;;;;;5055394;28;20501;-67
2022/07/11 03:23:52;;;;;;;3.20;2.08;;;18.70;99.90;;;;;;5056961;28;20029;-68
2022/07/11 03:26:18;;;;;;;4.22;2.15;;;18.70;99.90;;;;;;5058722;28;20037;-67
2022/07/11 03:28:44;;;;;;;3.85;2.38;;;18.60;99.90;;;;;;5060292;28;20039;-66
2022/07/11 03:31:10;;;;;;;4.85;2.25;;;18.70;99.90;;;;;;5061915;28;20029;-66
2022/07/11 03:33:36;;;;;;;2.90;2.22;;;18.70;99.90;;;;;;5058782;28;20049;-67
2022/07/11 03:36:02;;;;;;;4.22;2.35;;;18.70;99.90;;;;;;5058138;28;20028;-67
2022/07/11 03:38:28;;;;;;;5.30;2.58;;;18.80;99.90;;;;;;5059604;28;20037;-67
2022/07/11 03:40:55;;;;;;;3.35;2.38;;;18.90;99.90;;;;;;5060453;28;20031;-67
2022/07/11 03:43:21;;;;;;;3.05;2.17;;;18.90;99.90;;;;;;5060042;28;20048;-67
2022/07/11 03:45:47;;;;;;;3.08;2.10;;;18.90;99.90;;;;;;5059144;28;20013;-67
2022/07/11 03:48:13;;;;;;;4.20;1.98;;;18.90;99.90;;;;;;5059329;28;20040;-66
2022/07/11 03:50:38;;;;;;;3.20;2.20;;;18.90;99.90;;;;;;5056307;28;20025;-66
2022/07/11 03:53:04;;;;;;;4.80;2.15;;;19.20;99.90;;;;;;5055318;28;20021;-66
2022/07/11 03:55:31;;;;;;;3.00;2.13;;;19.00;99.90;;;;;;5054769;28;20453;-67
2022/07/11 03:57:56;;;;;;;5.43;2.40;;;18.90;99.90;;;;;;5054401;28;20029;-67
2022/07/11 04:00:22;;;;;;;2.75;2.25;;;18.90;99.90;;;;;;5052808;28;20018;-66
2022/07/11 04:02:48;;;;;;;3.17;2.20;;;18.90;99.90;;;;;;5054010;28;20481;-67
2022/07/11 04:05:14;;;;;;;2.42;2.15;;;18.90;99.90;;;;;;5054064;28;20075;-67
2022/07/11 04:07:40;;;;;;;2.60;1.95;;;18.80;99.90;;;;;;5053837;28;20036;-67
2022/07/11 04:10:06;;;;;;;;;;;18.80;99.90;;;;;;5054188;28;20440;-67
2022/07/11 04:12:31;;;;;;;3.20;1.98;;;18.90;99.90;;;;;;5053924;28;19905;-66
2022/07/11 04:14:57;;;;;;;2.60;2.00;;;18.90;99.90;;;;;;5052023;28;20025;-67
2022/07/11 04:17:23;;;;;;;3.03;2.13;;;18.80;99.90;;;;;;5053939;28;20438;-66
2022/07/11 04:19:48;;;;;;;5.72;2.40;;;18.60;99.90;;;;;;5053994;28;20029;-67
2022/07/11 04:22:14;;;;;;;4.82;2.40;;;18.50;99.90;;;;;;5053928;28;20107;-67
2022/07/11 04:24:39;;;;;;;3.58;1.95;;;18.50;99.90;;;;;;5054085;28;20071;-67
2022/07/11 04:27:05;;;;;;;3.13;2.60;;;18.60;99.90;;;;;;5053451;28;20068;-67
2022/07/11 04:29:31;;;;;;;3.22;2.22;;;18.60;99.90;;;;;;5053601;28;20024;-66
2022/07/11 04:31:56;;;;;;;3.58;2.13;;;18.50;99.90;;;;;;5053732;28;20044;-66
2022/07/11 04:34:22;;;;;;;2.92;2.38;;;18.50;99.90;;;;;;5052098;28;20029;-67
2022/07/11 04:36:48;;;;;;;3.70;2.17;;;18.50;99.90;;;;;;5053392;28;20036;-66
2022/07/11 04:39:13;;;;;;;4.93;2.70;;;18.60;99.90;;;;;;5052156;28;20362;-67
2022/07/11 04:41:39;;;;;;;3.67;2.30;;;18.60;99.90;;;;;;5053251;28;20460;-66
2022/07/11 04:44:05;;;;;;;2.83;1.98;;;18.60;99.90;;;;;;5053253;28;20031;-67
2022/07/11 04:46:31;;;;;;;4.00;2.55;;;18.60;99.90;;;;;;5052180;28;20079;-66
2022/07/11 04:48:57;;;;;;;4.38;2.42;;;18.70;99.90;;;;;;5051069;28;20112;-67
2022/07/11 04:51:26;;;;;;;5.15;2.90;;;18.70;99.90;;;;;;5050466;28;20557;-67
2022/07/11 04:53:52;;;;;;;3.53;2.47;;;18.70;99.90;;;;;;5053566;28;20377;-67
2022/07/11 04:56:17;;;;;;;3.42;2.22;;;18.70;99.90;;;;;;5053288;28;20115;-68
2022/07/11 04:58:43;;;;;;;3.22;2.40;;;18.70;99.90;;;;;;5051746;28;20474;-68
2022/07/11 05:01:09;;;;;;;4.03;2.35;;;19.00;99.90;;;;;;5053322;28;20470;-69
2022/07/11 05:03:34;;;;;;;4.18;2.50;;;19.20;99.90;;;;;;5051871;28;20031;-68
2022/07/11 05:06:00;;;;;;;3.33;2.63;;;19.30;99.90;;;;;;5051903;28;20025;-68
2022/07/11 05:08:26;;;;;;;4.97;2.35;;;19.40;99.90;;;;;;5053271;28;20044;-68
2022/07/11 05:10:52;;;;;;;3.22;2.67;;;19.40;99.90;;;;;;5053294;28;20063;-68
2022/07/11 05:13:17;;;;;;;3.97;2.60;;;19.40;99.90;;;;;;5053194;28;20045;-68
2022/07/11 05:15:44;;;;;;;4.38;2.60;;;19.40;99.90;;;;;;5053292;28;20025;-69
2022/07/11 05:18:10;;;;;;;5.20;2.40;;;19.30;99.90;;;;;;5053186;28;20106;-68
2022/07/11 05:20:35;;;;;;;3.40;2.58;;;19.30;99.90;;;;;;5053084;28;20033;-69
2022/07/11 05:23:01;;;;;;;3.22;2.17;;;19.30;99.90;;;;;;5052914;28;20040;-69
2022/07/11 05:25:26;;;;;;;3.63;2.72;;;19.40;99.90;;;;;;5051565;28;20029;-69
2022/07/11 05:27:52;;;;;;;4.10;2.53;;;19.30;99.90;;;;;;5057387;28;20040;-69
2022/07/11 05:30:18;;;;;;;6.75;2.97;;;19.30;99.90;;;;;;5056493;28;20037;-69
2022/07/11 05:32:43;;;;;;;6.38;2.60;;;19.30;99.90;;;;;;5057352;28;20358;-69
2022/07/11 05:35:09;;;;;;;4.97;3.13;;;19.30;99.90;;;;;;5056559;28;20057;-69
2022/07/11 05:37:35;;;;;;;4.88;3.03;;;19.30;99.90;;;;;;5056434;28;20026;-69
2022/07/11 05:40:01;;;;;;;3.45;2.60;;;19.40;99.90;;;;;;5056784;28;20048;-68
2022/07/11 05:42:28;;;;;;;;;;;19.40;99.90;;;;;;5056401;28;20033;-68
2022/07/11 05:44:54;;;;;;;4.15;2.55;;;19.50;99.90;;;;;;5057215;28;20381;-67
2022/07/11 05:47:20;;;;;;;8.15;2.70;;;19.80;99.90;;;;;;5056620;28;20064;-67
2022/07/11 05:49:45;;;;;;;4.68;2.35;;;19.90;99.90;;;;;;5055176;28;20020;-68
2022/07/11 05:52:11;;;;;;;4.63;2.75;;;20.00;99.90;;;;;;5056376;28;20029;-67
2022/07/11 05:54:36;;;;;;;7.82;2.97;;;20.00;99.90;;;;;;5054342;28;20025;-68
2022/07/11 05:57:02;;;;;;;5.28;2.55;;;20.10;99.90;;;;;;5054094;28;20029;-67
2022/07/11 05:59:28;;;;;;;5.15;3.03;;;20.20;99.90;;;;;;5054216;28;20021;-69
2022/07/11 06:01:54;;;;;;;5.30;2.50;;;20.20;99.90;;;;;;5053980;28;20029;-67
2022/07/11 06:04:20;;;;;;;7.50;2.65;;;20.20;99.90;;;;;;5054170;28;20051;-67
2022/07/11 06:06:46;;;;;;;4.03;2.45;;;20.20;99.90;;;;;;5054046;28;20025;-67
2022/07/11 06:09:12;;;;;;;5.93;2.80;;;20.40;99.90;;;;;;5055450;28;20424;-68
2022/07/11 06:11:37;;;;;;;3.28;2.20;;;20.40;99.90;;;;;;5054777;28;20037;-68
2022/07/11 06:14:03;;;;;;;4.10;2.47;;;20.50;99.90;;;;;;5056318;28;20025;-68
2022/07/11 06:16:29;;;;;;;5.95;2.53;;;20.60;99.90;;;;;;5056085;28;20036;-68
2022/07/11 06:18:54;;;;;;;4.15;2.08;;;20.60;99.80;;;;;;5056570;28;20060;-68
2022/07/11 06:21:21;;;;;;;4.93;2.70;;;20.80;99.90;;;;;;5056197;28;20052;-69
2022/07/11 06:23:46;;;;;;;7.15;2.63;;;20.90;99.10;;;;;;5056016;28;20410;-68
2022/07/11 06:26:13;;;;;;;8.40;3.00;;;20.90;99.40;;;;;;5054546;28;20128;-68
2022/07/11 06:28:39;;;;;;;5.22;2.10;;;20.80;99.40;;;;;;5079841;22;20382;-62
2022/07/11 06:31:05;;;;;;;6.35;3.65;;;20.60;99.50;;;;;;5056192;28;20043;-62
2022/07/11 06:33:30;;;;;;;;;;;20.60;99.80;;;;;;5055926;28;20033;-62
2022/07/11 06:35:56;;;;;;;5.20;2.63;;;20.50;99.70;;;;;;5055538;28;19915;-62
2022/07/11 06:38:22;;;;;;;6.25;2.78;;;20.50;99.70;;;;;;5053441;28;20551;-63
2022/07/11 06:40:47;;;;;;;3.28;2.35;;;20.50;99.70;;;;;;5054406;28;20033;-62
2022/07/11 06:43:13;;;;;;;4.93;2.45;;;20.60;99.60;;;;;;5056454;28;20424;-62
2022/07/11 06:45:39;;;;;;;;;;;20.80;99.30;;;;;;5056843;28;20025;-61
2022/07/11 06:48:05;;;;;;;3.42;2.53;;;21.00;99.00;;;;;;5055644;28;19911;-61
2022/07/11 06:50:32;;;;;;;6.72;3.33;;;21.20;98.80;;;;;;5055082;28;20061;-59
2022/07/11 06:52:57;;;;;;;4.85;3.13;;;20.90;99.10;;;;;;5056299;28;20032;-61
2022/07/11 06:55:23;;;;;;;18.20;3.67;;;21.20;99.10;;;;;;5071431;28;20029;-60
2022/07/11 06:57:50;;;;;;;4.95;2.70;;;21.20;98.70;;;;;;5055908;28;20025;-62
2022/07/11 07:00:17;;;;;;;4.75;2.60;;;21.30;98.30;;;;;;5055656;28;20029;-61
2022/07/11 07:02:43;;;;;;;6.07;2.88;;;21.30;98.40;;;;;;5053819;28;20029;-62
2022/07/11 07:05:09;;;;;;;4.10;3.25;;;21.30;98.20;;;;;;5055115;28;20412;-61
2022/07/11 07:07:35;;;;;;;6.70;2.70;;;21.50;97.90;;;;;;5054556;28;20036;-62
2022/07/11 07:10:01;;;;;;;8.82;2.92;;;21.60;97.80;;;;;;5055063;28;20032;-63
2022/07/11 07:12:26;;;;;;;5.43;2.47;;;21.80;97.40;;;;;;5054696;28;20056;-62
2022/07/11 07:14:52;;;;;;;4.45;2.40;;;21.90;97.30;;;;;;5053339;28;20079;-62
2022/07/11 07:17:18;;;;;;;5.53;2.40;;;22.10;96.90;;;;;;5054630;28;20071;-61
2022/07/11 07:19:44;;;;;;;;;;;22.20;96.80;;;;;;5055163;28;20017;-63
2022/07/11 07:22:10;;;;;;;3.65;2.35;;;22.30;96.40;;;;;;5054784;28;19911;-61
2022/07/11 07:24:36;;;;;;;4.25;3.05;;;22.30;96.40;;;;;;5054803;28;20021;-60
2022/07/11 07:27:02;;;;;;;3.78;2.42;;;22.30;96.40;;;;;;5054452;28;20044;-61
2022/07/11 07:29:28;;;;;;;3.97;2.25;;;22.10;96.60;;;;;;5054800;28;20021;-62
2022/07/11 07:31:54;;;;;;;4.60;2.53;;;21.80;97.00;;;;;;5054367;28;20095;-62
2022/07/11 07:34:20;;;;;;;;;;;21.60;97.30;;;;;;5054691;28;20405;-62
2022/07/11 07:36:45;;;;;;;5.38;3.13;;;21.50;97.70;;;;;;5054208;28;19905;-63
2022/07/11 07:39:11;;;;;;;5.07;3.10;;;21.40;97.80;;;;;;5054596;28;20048;-62
2022/07/11 07:41:36;;;;;;;5.45;2.60;;;21.30;97.80;;;;;;5054281;28;20526;-59
2022/07/11 07:44:02;;;;;;;4.95;3.03;;;21.20;98.20;;;;;;5054303;28;20481;-63
2022/07/11 07:46:29;;;;;;;5.93;3.15;;;21.20;98.00;;;;;;5054568;28;20032;-62
2022/07/11 07:48:55;;;;;;;4.22;2.63;;;21.30;97.90;;;;;;5053848;28;20045;-62
2022/07/11 07:51:21;;;;;;;4.18;2.50;;;21.50;97.90;;;;;;5054662;28;20021;-61
2022/07/11 07:53:47;;;;;;;;;;;21.60;97.60;;;;;;5054414;28;20032;-62
2022/07/11 07:56:12;;;;;;;8.38;3.67;;;21.90;97.20;;;;;;5054209;28;19908;-63
2022/07/11 07:58:38;;;;;;;6.47;4.15;;;21.80;97.50;;;;;;5053818;28;20361;-62
2022/07/11 08:03:48;;;;;;;4.10;2.47;;;21.90;96.70;;;;;;5055565;28;20446;-61
2022/07/11 08:06:14;;;;;;;4.63;2.35;;;22.10;96.80;;;;;;5054785;28;20061;-62
2022/07/11 08:08:39;;;;;;;5.00;3.03;;;22.30;96.30;;;;;;5053179;28;20385;-62
2022/07/11 08:11:05;;;;;;;5.35;2.38;;;22.50;96.10;;;;;;5053659;28;20033;-61
2022/07/11 08:13:30;;;;;;;5.03;2.85;;;22.30;96.00;;;;;;5053822;28;20443;-62
2022/07/11 08:15:56;;;;;;;;;;;22.30;96.10;;;;;;5053923;28;20021;-62
2022/07/11 08:18:21;;;;;;;6.03;2.63;;;22.40;96.20;;;;;;5053658;28;19958;-61
2022/07/11 08:20:47;;;;;;;3.83;2.08;;;22.40;95.70;;;;;;5054437;28;20025;-62
2022/07/11 08:23:13;;;;;;;4.78;2.40;;;22.30;95.90;;;;;;5053012;28;20411;-62
2022/07/11 08:25:39;;;;;;;6.35;2.53;;;22.40;95.90;;;;;;5054243;28;20033;-62
2022/07/11 08:28:05;;;;;;;4.28;2.65;;;22.50;95.80;;;;;;5052694;28;20047;-62
2022/07/11 08:30:31;;;;;;;3.13;2.22;;;22.30;95.90;;;;;;5055356;28;20100;-62
2022/07/11 08:32:57;;;;;;;;;;;22.40;96.00;;;;;;5054915;28;20028;-62
2022/07/11 08:35:22;;;;;;;4.07;2.13;;;23.10;94.80;;;;;;5053851;28;19920;-62
2022/07/11 08:37:48;;;;;;;3.03;2.20;;;23.20;94.50;;;;;;5053614;28;20107;-61
2022/07/11 08:40:14;;;;;;;2.70;1.90;;;23.10;94.10;;;;;;5052270;28;20029;-62
2022/07/11 08:42:40;;;;;;;;;;;23.40;94.40;;;;;;5053873;28;20053;-62
2022/07/11 08:45:07;;;;;;;3.63;2.38;;;23.70;93.50;;;;;;5052003;28;19983;-62
2022/07/11 08:47:35;;;;;;;3.35;1.98;;;24.40;92.90;;;;;;5053134;28;20037;-64
2022/07/11 08:50:03;;;;;;;3.28;1.77;;;25.30;91.20;;;;;;5053276;28;20025;-64
2022/07/11 08:52:28;;;;;;;3.20;1.92;;;25.90;90.90;;;;;;5053167;28;20025;-63
2022/07/11 08:54:55;;;;;;;4.30;1.80;;;26.30;90.00;;;;;;5051817;28;20032;-63
2022/07/11 08:57:21;;;;;;;3.95;1.50;;;25.70;90.00;;;;;;5053778;28;20390;-61
2022/07/11 08:59:48;;;;;;;3.55;1.75;;;26.70;87.60;;;;;;5054605;28;20052;-63
2022/07/11 09:02:14;;;;;;;10.98;1.75;;;28.50;85.00;;;;;;5053555;28;20028;-62
2022/07/11 09:04:40;;;;;;;2.58;1.35;;;30.20;79.60;;;;;;5053880;28;20025;-63
2022/07/11 09:07:06;;;;;;;2.33;1.42;;;31.40;76.40;;;;;;5053931;28;20507;-63
2022/07/11 09:09:32;;;;;;;3.13;1.40;;;31.10;73.90;;;;;;5053833;28;20029;-63
2022/07/11 09:11:58;;;;;;;3.42;1.30;;;30.40;74.20;;;;;;5054285;28;20469;-62
2022/07/11 09:14:29;;;;;;;2.33;1.88;;;30.50;74.00;;;;;;5056550;28;20048;-63
2022/07/11 09:16:57;;;;;;;3.22;1.70;;;31.00;73.20;;;;;;5057955;28;20056;-63
2022/07/11 09:19:25;;;;;;;2.92;1.90;;;29.90;73.60;;;;;;5056639;28;20089;-62
2022/07/11 09:25:31;;;;;;;3.22;1.75;;;31.80;71.50;;;;;;5057507;28;20072;-61
2022/07/11 09:28:04;;;;;;;2.13;1.38;;;32.80;69.00;;;;;;5033434;28;20050;-62
2022/07/11 09:30:31;;;;;;;3.25;1.60;;;34.20;67.30;;;;;;5015789;28;20040;-61
2022/07/11 09:32:59;;;;;;;4.25;2.00;;;35.20;64.90;;;;;;5032218;28;20509;-62
2022/07/11 09:35:34;;;;;;;4.15;1.60;;;34.00;64.40;;;;;;5032414;28;20108;-62
2022/07/11 09:38:04;;;;;;;2.40;1.60;;;32.10;66.70;;;;;;5031053;28;20026;-62
2022/07/11 09:40:29;;;;;;;2.13;1.73;;;31.70;67.60;;;;;;5014385;28;20025;-61
2022/07/11 09:42:57;;;;;;;3.20;1.60;;;30.60;69.50;;;;;;5031101;28;20079;-61
2022/07/11 09:45:26;;;;;;;3.17;1.73;;;29.70;70.00;;;;;;5014737;28;20032;-63
2022/07/11 09:47:58;;;;;;;3.58;1.70;;;28.70;72.20;;;;;;5014305;28;20049;-60
2022/07/11 09:50:28;;;;;;;2.17;1.75;;;28.60;72.40;;;;;;5014729;28;20111;-62
2022/07/11 09:53:10;;;;;;;5.22;1.63;;;28.60;71.80;;;;;;5030581;28;20476;-60
2022/07/11 09:55:41;;;;;;;4.40;2.08;;;28.10;73.30;;;;;;5030294;28;20386;-61
2022/07/11 09:58:11;;;;;;;3.92;2.00;;;27.30;74.70;;;;;;5030326;28;20049;-61
2022/07/11 10:00:38;;;;;;;3.90;1.70;;;26.90;76.50;;;;;;5014134;28;20049;-61
2022/07/11 10:03:06;;;;;;;5.55;2.38;;;28.10;76.00;;;;;;5039255;28;20075;-63
2022/07/11 10:05:32;;;;;;;3.90;1.92;;;30.40;72.80;;;;;;5052241;28;20021;-60
2022/07/11 10:07:59;;;;;;;4.72;1.60;;;32.70;68.20;;;;;;5052228;28;20370;-63
2022/07/11 10:10:25;;;;;;;3.17;1.52;;;33.30;66.20;;;;;;5050981;28;20032;-61
2022/07/11 10:12:52;;;;;;;5.70;1.95;;;32.40;66.30;;;;;;5053090;28;20404;-62
2022/07/11 10:15:24;;;;;;;1.90;1.63;;;30.60;68.40;;;;;;5055859;28;20057;-62
2022/07/11 10:17:58;;;;;;;3.38;1.67;;;30.50;70.00;;;;;;5056188;28;20040;-61
2022/07/11 10:20:31;;;;;;;3.88;1.58;;;32.10;66.50;;;;;;5055791;28;20025;-62
2022/07/11 10:23:19;;;;;;;2.35;1.23;;;32.50;64.90;;;;;;5055639;28;20021;-62
2022/07/11 10:26:07;;;;;;;2.63;1.50;;;31.90;65.00;;;;;;5071017;28;20028;-60
2022/07/11 10:28:51;;;;;;;2.63;1.50;;;31.60;65.30;;;;;;5055580;28;20039;-62
2022/07/11 10:31:23;;;;;;;2.55;1.10;;;31.90;64.80;;;;;;5055737;28;20040;-62
2022/07/11 10:34:05;;;;;;;1.95;1.17;;;32.90;64.00;;;;;;5055752;28;20055;-62
2022/07/11 10:36:33;;;;;;;1.60;1.20;;;34.10;62.10;;;;;;5054379;28;20024;-61
2022/07/11 10:39:21;;;;;;;1.50;1.10;;;34.40;60.70;;;;;;5055460;28;20021;-59
2022/07/11 10:41:47;;;;;;;1.60;1.10;;;34.90;60.40;;;;;;5055532;28;20048;-62
2022/07/11 10:44:13;;;;;;;6.00;1.20;;;34.90;59.80;;;;;;5055234;28;20064;-61
2022/07/11 10:46:38;;;;;;;2.20;1.20;;;34.10;60.00;;;;;;5053963;28;20032;-63
2022/07/11 10:49:13;;;;;;;3.40;1.30;;;33.60;61.40;;;;;;5055775;28;20553;-63
2022/07/11 10:52:04;;;;;;;2.17;1.30;;;34.50;61.00;;;;;;5055001;28;20065;-62
2022/07/11 10:54:42;;;;;;;2.33;1.42;;;35.30;59.80;;;;;;5053568;28;20025;-61
2022/07/11 10:57:13;;;;;;;2.97;2.10;;;34.80;60.00;;;;;;5053570;28;20057;-61
2022/07/11 11:00:13;;;;;;;2.83;1.67;;;33.20;61.30;;;;;;5055588;28;20090;-62
2022/07/11 11:03:01;;;;;;;2.67;1.50;;;31.00;64.30;;;;;;5016407;28;20116;-64
2022/07/11 11:05:47;;;;;;;2.17;1.30;;;29.60;66.60;;;;;;5032805;28;20104;-61
2022/07/11 11:08:40;;;;;;;5.28;1.60;;;28.60;68.90;;;;;;5016126;28;20030;-60
2022/07/11 11:11:07;;;;;;;3.97;1.65;;;27.60;70.60;;;;;;5016529;28;20037;-61
2022/07/11 11:13:37;;;;;;;4.00;1.77;;;27.20;72.20;;;;;;5033157;28;20044;-62
2022/07/11 11:16:19;;;;;;;2.45;1.40;;;26.90;73.00;;;;;;5033009;28;20111;-62
2022/07/11 11:18:45;;;;;;;3.38;1.50;;;27.20;72.40;;;;;;5032672;28;20037;-62
2022/07/11 11:21:15;;;;;;;2.13;1.40;;;27.30;72.70;;;;;;5015939;28;20072;-62
2022/07/11 11:23:42;;;;;;;2.50;1.70;;;27.40;72.70;;;;;;5032456;28;20108;-60
2022/07/11 11:26:15;;;;;;;2.95;1.35;;;26.80;73.30;;;;;;5032605;28;20045;-63
2022/07/11 11:29:01;;;;;;;2.97;1.50;;;26.80;74.60;;;;;;5032358;28;20044;-62
2022/07/11 11:31:31;;;;;;;1.85;1.40;;;27.00;73.90;;;;;;5032173;28;20044;-61
2022/07/11 11:33:58;;;;;;;2.33;1.30;;;26.60;74.20;;;;;;5032396;28;20100;-61
2022/07/11 11:36:25;;;;;;;2.40;1.40;;;26.80;74.40;;;;;;5033054;28;20161;-63
2022/07/11 11:38:52;;;;;;;5.15;1.63;;;26.20;74.70;;;;;;5044360;28;20070;-63
2022/07/11 11:41:28;;;;;;;3.90;1.30;;;26.30;75.50;;;;;;5054461;28;20043;-62
2022/07/11 11:44:02;;;;;;;3.50;1.20;;;26.20;75.80;;;;;;5054871;28;20037;-62
2022/07/11 11:46:30;;;;;;;3.28;1.42;;;26.30;75.50;;;;;;5054760;28;20428;-63
2022/07/11 11:48:57;;;;;;;3.25;1.30;;;26.20;75.50;;;;;;5054360;28;20028;-62
2022/07/11 11:51:23;;;;;;;2.15;1.30;;;26.20;75.90;;;;;;5054699;28;20025;-62
2022/07/11 11:53:52;;;;;;;3.55;1.40;;;26.40;75.90;;;;;;5054706;28;20099;-62
2022/07/11 11:56:29;;;;;;;1.52;1.30;;;26.60;75.20;;;;;;5054885;28;20021;-63
2022/07/11 11:59:07;;;;;;;5.07;1.25;;;26.60;75.40;;;;;;5054552;28;20526;-63
2022/07/11 12:01:35;;;;;;;5.93;1.50;;;26.30;76.70;;;;;;5053440;28;20025;-63
2022/07/11 12:04:03;;;;;;;1.95;1.25;;;26.20;77.00;;;;;;5053230;28;20029;-63
2022/07/11 12:06:31;;;;;;;2.85;1.23;;;26.30;76.40;;;;;;5053880;28;20017;-62
2022/07/11 12:09:11;;;;;;;1.65;1.10;;;26.00;77.10;;;;;;5053851;28;20166;-62
2022/07/11 12:11:41;;;;;;;7.60;1.40;;;26.10;76.90;;;;;;5053674;28;20068;-63
2022/07/11 12:14:09;;;;;;;2.75;1.40;;;26.00;76.90;;;;;;5054645;28;20021;-64
2022/07/11 12:16:49;;;;;;;2.63;1.25;;;26.00;76.70;;;;;;5054418;28;20022;-64
2022/07/11 12:19:21;;;;;;;2.13;1.10;;;26.00;77.20;;;;;;5052881;28;20071;-65
2022/07/11 12:21:49;;;;;;;3.10;1.17;;;26.10;76.60;;;;;;5054266;28;20032;-65
2022/07/11 12:24:20;;;;;;;2.10;0.90;;;26.20;76.60;;;;;;5053815;28;20477;-65
2022/07/11 12:26:47;;;;;;;2.08;0.90;;;26.40;76.40;;;;;;5053944;28;20033;-65
2022/07/11 12:29:20;;;;;;;3.22;1.20;;;26.40;75.00;;;;;;5076990;22;20104;-69
2022/07/11 12:31:51;;;;;;;1.85;0.93;;;26.50;75.00;;;;;;5053912;28;20093;-69
2022/07/11 12:34:19;;;;;;;3.25;1.23;;;26.30;75.70;;;;;;5052513;28;20385;-69
2022/07/11 12:36:45;;;;;;;2.33;1.25;;;26.20;76.40;;;;;;5052672;28;20112;-69
2022/07/11 12:39:24;;;;;;;1.67;1.10;;;26.40;76.50;;;;;;5053312;28;20021;-69
2022/07/11 12:41:55;;;;;;;4.25;1.38;;;26.60;76.20;;;;;;5052007;28;20021;-69
2022/07/11 12:47:10;;;;;;;3.92;0.95;;;26.90;75.50;;;;;;5053715;28;20056;-69
2022/07/11 12:49:36;;;;;;;2.92;0.90;;;26.90;75.00;;;;;;5051871;28;20028;-68
2022/07/11 12:52:01;;;;;;;4.45;1.13;;;26.70;75.40;;;;;;5053717;28;20025;-69
2022/07/11 12:54:32;;;;;;;3.60;1.08;;;26.40;76.40;;;;;;5053703;28;20032;-69
2022/07/11 12:57:01;;;;;;;3.75;1.20;;;26.20;76.30;;;;;;5053476;28;20080;-70
2022/07/11 12:59:28;;;;;;;2.85;0.90;;;26.30;76.60;;;;;;5053123;28;20027;-70
2022/07/11 13:02:14;;;;;;;3.22;0.88;;;26.30;75.60;;;;;;5053330;28;20067;-69